Time;durP1;ratioP1;P1;durP2;ratioP2;P2;SDS_P1;SDS_P2;PMS_P1;PMS_P2;Temp;Humidity;BMP_temperature;BMP_pressure;BME280_temperature;BME280_humidity;BME280_pressure;Samples;Min_cycle;Max_cycle;Signal;HPM_P1;HPM_P2
2022/07/31 00:00:31;;;;;;;12.93;9.20;;;;;;;20.78;100.00;99460.25;6253253;28;20099;-71
2022/07/31 00:03:32;;;;;;;15.20;9.70;;;;;;;20.76;100.00;99473.69;6271038;28;20048;-71
2022/07/31 00:06:33;;;;;;;10.70;9.00;;;;;;;20.55;100.00;99471.59;6241138;28;20106;-75
2022/07/31 00:09:33;;;;;;;13.77;10.77;;;;;;;20.48;100.00;99466.16;6274200;28;20372;-71
2022/07/31 00:12:35;;;;;;;13.65;10.25;;;;;;;20.47;100.00;99461.03;6275439;28;20073;-71
2022/07/31 00:15:36;;;;;;;15.37;11.57;;;;;;;20.41;100.00;99464.38;6274306;28;20060;-71
2022/07/31 00:18:39;;;;;;;13.57;11.47;;;;;;;20.40;100.00;99460.88;6264375;28;20056;-71
2022/07/31 00:21:40;;;;;;;12.82;10.35;;;;;;;20.37;100.00;99458.59;6265914;28;20755;-71
2022/07/31 00:24:40;;;;;;;14.17;10.47;;;;;;;20.40;100.00;99457.41;6265707;28;20128;-74
2022/07/31 00:27:41;;;;;;;14.17;9.80;;;;;;;20.29;100.00;99453.31;6249189;28;20049;-74
2022/07/31 00:30:42;;;;;;;13.20;9.33;;;;;;;20.31;100.00;99457.44;6281714;28;20189;-74
2022/07/31 00:33:43;;;;;;;10.07;8.77;;;;;;;20.28;100.00;99462.25;6281961;28;20119;-71
2022/07/31 00:36:43;;;;;;;12.23;9.13;;;;;;;20.25;100.00;99457.31;6281738;28;20040;-74
2022/07/31 00:39:48;;;;;;;11.23;9.18;;;;;;;20.27;100.00;99457.97;6281992;28;20399;-71
2022/07/31 00:42:49;;;;;;;9.65;8.07;;;;;;;20.27;100.00;99448.19;6265219;28;20117;-74
2022/07/31 00:45:51;;;;;;;8.27;6.80;;;;;;;20.13;100.00;99454.19;6281398;28;20111;-74
2022/07/31 00:48:52;;;;;;;7.10;6.07;;;;;;;20.08;100.00;99440.66;6248628;28;20289;-71
2022/07/31 00:51:53;;;;;;;13.07;7.40;;;;;;;20.15;100.00;99446.06;6281611;28;20051;-71
2022/07/31 00:54:53;;;;;;;7.53;6.30;;;;;;;20.16;100.00;99448.56;6265156;28;20051;-74
2022/07/31 00:57:57;;;;;;;9.23;6.80;;;;;;;20.18;100.00;99451.03;6264865;28;20332;-71
2022/07/31 01:01:00;;;;;;;8.73;6.22;;;;;;;20.13;100.00;99454.19;6248524;28;20045;-74
2022/07/31 01:04:01;;;;;;;7.22;6.13;;;;;;;20.07;100.00;99455.69;6265026;28;20102;-72
2022/07/31 01:07:02;;;;;;;7.47;5.97;;;;;;;20.14;100.00;99453.19;6247936;28;20053;-72
2022/07/31 01:10:09;;;;;;;11.10;6.30;;;;;;;20.11;100.00;99456.19;6298799;28;20052;-72
2022/07/31 01:13:21;;;;;;;10.30;6.57;;;;;;;20.09;100.00;99455.53;6280978;28;20438;-71
2022/07/31 01:16:25;;;;;;;7.57;6.47;;;;;;;20.09;100.00;99456.34;6280702;28;20036;-72
2022/07/31 01:19:59;;;;;;;9.30;6.10;;;;;;;20.01;100.00;99458.19;6297889;28;20525;-74
2022/07/31 01:23:11;;;;;;;9.55;6.32;;;;;;;20.02;100.00;99460.66;6226229;28;20055;-70
2022/07/31 01:26:27;;;;;;;9.93;6.55;;;;;;;19.94;100.00;99463.34;6298520;28;20036;-71
2022/07/31 01:29:45;;;;;;;8.25;6.40;;;;;;;19.86;100.00;99452.75;6298366;28;20044;-71
2022/07/31 01:32:50;;;;;;;6.28;5.68;;;;;;;19.84;100.00;99452.09;6280384;28;20045;-72
2022/07/31 01:36:07;;;;;;;7.22;6.47;;;;;;;19.69;100.00;99446.63;6280388;28;20044;-74
2022/07/31 01:39:09;;;;;;;7.35;6.30;;;;;;;19.68;100.00;99450.25;6280234;28;20036;-74
2022/07/31 01:42:13;;;;;;;7.45;6.57;;;;;;;19.56;100.00;99447.16;6280309;28;20451;-74
2022/07/31 01:45:15;;;;;;;7.38;6.50;;;;;;;19.56;100.00;99447.16;6297928;28;20049;-74
2022/07/31 01:48:17;;;;;;;6.50;5.82;;;;;;;19.51;100.00;99450.28;6280169;28;20044;-74
2022/07/31 01:51:20;;;;;;;8.40;6.57;;;;;;;19.47;100.00;99453.44;6297698;28;20066;-74
2022/07/31 01:54:22;;;;;;;7.13;6.07;;;;;;;19.42;100.00;99447.81;6297856;28;20053;-71
2022/07/31 01:57:24;;;;;;;;;;;;;;;19.45;100.00;99443.00;6280652;28;20048;-71
2022/07/31 02:00:25;;;;;;;8.50;6.60;;;;;;;19.40;100.00;99437.41;6297591;28;20320;-71
2022/07/31 02:03:28;;;;;;;8.57;6.67;;;;;;;19.26;100.00;99438.06;6297565;28;20093;-71
2022/07/31 02:06:29;;;;;;;9.38;6.63;;;;;;;19.24;100.00;99432.09;6297502;28;20055;-74
2022/07/31 02:09:32;;;;;;;8.73;6.93;;;;;;;19.19;100.00;99437.03;6297660;28;20102;-71
2022/07/31 02:12:34;;;;;;;9.70;7.13;;;;;;;19.12;100.00;99427.13;6297257;28;20064;-71
2022/07/31 02:15:40;;;;;;;8.40;7.03;;;;;;;19.09;100.00;99424.81;6279825;28;20110;-70
2022/07/31 02:18:41;;;;;;;8.77;7.38;;;;;;;19.01;100.00;99422.16;6297131;28;20070;-70
2022/07/31 02:21:42;;;;;;;9.57;7.93;;;;;;;19.02;100.00;99420.34;6279005;28;20482;-71
2022/07/31 02:24:43;;;;;;;8.13;7.27;;;;;;;18.95;100.00;99417.53;6279047;28;20074;-72
2022/07/31 02:27:47;;;;;;;9.80;7.60;;;;;;;18.93;100.00;99406.28;6296637;28;20466;-71
2022/07/31 02:30:50;;;;;;;8.27;7.47;;;;;;;18.90;100.00;99411.88;6279220;28;20044;-71
2022/07/31 02:33:52;;;;;;;9.55;7.70;;;;;;;18.82;100.00;99403.94;6296902;28;20040;-71
2022/07/31 02:36:54;;;;;;;10.65;7.78;;;;;;;18.83;100.00;99409.06;6297040;28;20398;-74
2022/07/31 02:39:56;;;;;;;10.75;8.15;;;;;;;18.82;100.00;99401.31;6296979;28;20045;-71
2022/07/31 02:42:57;;;;;;;16.60;8.20;;;;;;;18.75;100.00;99409.03;6297066;28;20475;-71
2022/07/31 02:46:01;;;;;;;8.95;8.05;;;;;;;18.72;100.00;99407.53;6278999;28;20052;-71
2022/07/31 02:49:02;;;;;;;9.80;8.35;;;;;;;18.70;100.00;99401.59;6279060;28;20048;-71
2022/07/31 02:52:05;;;;;;;9.13;8.18;;;;;;;18.76;100.00;99407.19;6279010;28;20071;-71
2022/07/31 02:55:07;;;;;;;10.15;8.50;;;;;;;18.78;100.00;99400.78;6296659;28;20040;-75
2022/07/31 02:58:10;;;;;;;9.93;8.93;;;;;;;18.70;100.00;99398.13;6278979;28;20041;-75
2022/07/31 03:01:13;;;;;;;10.32;8.25;;;;;;;18.67;100.00;99406.38;6262308;28;20056;-75
2022/07/31 03:04:13;;;;;;;10.30;9.10;;;;;;;18.57;100.00;99397.75;6246219;28;20045;-72
2022/07/31 03:07:16;;;;;;;18.30;9.20;;;;;;;18.47;100.00;99398.72;6296414;28;20055;-72
2022/07/31 03:10:19;;;;;;;;;;;;;;;18.43;100.00;99401.81;6279261;28;20471;-72
2022/07/31 03:13:23;;;;;;;10.95;9.27;;;;;;;18.43;100.00;99392.13;6296608;28;19920;-75
2022/07/31 03:16:25;;;;;;;12.68;9.77;;;;;;;18.38;100.00;99398.84;6296595;28;20071;-75
2022/07/31 03:19:27;;;;;;;14.35;9.75;;;;;;;18.38;100.00;99399.69;6270116;28;20368;-72
2022/07/31 03:22:28;;;;;;;11.18;9.77;;;;;;;18.37;100.00;99398.03;6271691;28;20041;-72
2022/07/31 03:25:31;;;;;;;12.15;10.00;;;;;;;18.33;100.00;99394.06;6270384;28;20045;-72
2022/07/31 03:28:35;;;;;;;10.63;9.63;;;;;;;18.31;100.00;99398.66;6271678;28;20467;-72
2022/07/31 03:31:37;;;;;;;11.05;9.32;;;;;;;18.27;100.00;99400.78;6271466;28;20103;-71
2022/07/31 03:34:38;;;;;;;11.18;9.40;;;;;;;18.28;100.00;99394.53;6237595;28;20045;-72
2022/07/31 03:37:39;;;;;;;11.33;10.13;;;;;;;18.25;100.00;99394.03;6270382;28;20041;-75
2022/07/31 03:40:40;;;;;;;11.90;10.20;;;;;;;18.26;100.00;99390.38;6256790;28;20331;-75
2022/07/31 03:43:47;;;;;;;11.38;10.02;;;;;;;18.22;100.00;99389.03;6275059;28;20052;-75
2022/07/31 03:46:50;;;;;;;12.38;9.50;;;;;;;18.20;100.00;99388.38;6274924;28;20049;-72
2022/07/31 03:49:52;;;;;;;12.48;10.10;;;;;;;18.21;100.00;99393.50;6258893;28;20044;-75
2022/07/31 03:52:53;;;;;;;;;;;;;;;18.11;100.00;99387.53;6276226;28;20041;-72
2022/07/31 03:55:56;;;;;;;11.73;9.45;;;;;;;18.13;100.00;99396.13;6275916;28;20386;-75
2022/07/31 03:58:57;;;;;;;11.85;10.15;;;;;;;18.12;100.00;99384.72;6258146;28;20487;-75
2022/07/31 04:01:59;;;;;;;14.43;11.02;;;;;;;18.16;100.00;99389.69;6274525;28;20514;-72
2022/07/31 04:05:00;;;;;;;12.10;10.82;;;;;;;18.15;100.00;99394.16;6257965;28;20052;-72
2022/07/31 04:08:01;;;;;;;13.05;10.55;;;;;;;18.20;100.00;99396.31;6275779;28;20040;-72
2022/07/31 04:11:04;;;;;;;15.23;11.30;;;;;;;18.23;100.00;99401.28;6274432;28;20052;-72
2022/07/31 04:14:05;;;;;;;12.50;11.15;;;;;;;18.26;100.00;99404.44;6275507;28;20068;-72
2022/07/31 04:17:10;;;;;;;12.65;11.32;;;;;;;18.31;100.00;99404.78;6257522;28;20048;-75
2022/07/31 04:20:11;;;;;;;13.90;11.25;;;;;;;18.32;100.00;99409.09;6257094;28;20075;-71
2022/07/31 04:23:15;;;;;;;14.27;12.77;;;;;;;18.30;100.00;99404.94;6256892;28;20094;-75
2022/07/31 04:26:18;;;;;;;13.10;11.77;;;;;;;18.36;100.00;99409.56;6273555;28;20041;-71
2022/07/31 04:29:19;;;;;;;13.30;11.90;;;;;;;18.43;100.00;99409.75;6274017;28;20107;-73
2022/07/31 04:32:21;;;;;;;15.40;11.98;;;;;;;18.42;100.00;99403.66;6273903;28;20052;-76
2022/07/31 04:35:22;;;;;;;13.90;12.32;;;;;;;18.49;100.00;99403.81;6274749;28;20051;-75
2022/07/31 04:38:22;;;;;;;13.52;12.05;;;;;;;18.55;100.00;99410.28;6256978;28;20053;-75
2022/07/31 04:41:26;;;;;;;12.32;11.02;;;;;;;18.58;100.00;99410.00;6257032;28;20041;-72
2022/07/31 04:44:27;;;;;;;16.10;12.10;;;;;;;18.50;100.00;99401.03;6273017;28;20048;-72
2022/07/31 04:47:28;;;;;;;13.65;11.68;;;;;;;18.61;100.00;99407.00;6256349;28;20077;-72
2022/07/31 04:50:30;;;;;;;14.55;11.55;;;;;;;18.63;100.00;99411.13;6256201;28;20056;-75
2022/07/31 04:53:31;;;;;;;12.52;11.05;;;;;;;18.67;100.00;99409.00;6256768;28;20045;-75
2022/07/31 04:56:32;;;;;;;13.55;10.70;;;;;;;18.67;100.00;99407.19;6256745;28;20098;-72
2022/07/31 04:59:34;;;;;;;16.05;10.88;;;;;;;18.66;100.00;99407.38;6275409;28;20853;-72
2022/07/31 05:02:35;;;;;;;13.32;10.25;;;;;;;18.65;100.00;99413.63;6272569;28;20044;-75
2022/07/31 05:05:37;;;;;;;13.00;10.20;;;;;;;18.79;100.00;99418.31;6298928;28;20072;-72
2022/07/31 05:08:38;;;;;;;;;;;;;;;18.79;100.00;99422.78;6248967;28;20082;-73
2022/07/31 05:11:40;;;;;;;12.40;10.25;;;;;;;18.77;100.00;99420.25;6278502;28;20262;-72
2022/07/31 05:14:41;;;;;;;15.35;10.40;;;;;;;18.79;100.00;99425.44;6276795;28;20044;-72
2022/07/31 05:17:41;;;;;;;11.48;9.30;;;;;;;18.75;100.00;99430.16;6262495;28;20088;-72
2022/07/31 05:20:42;;;;;;;10.70;9.55;;;;;;;18.85;100.00;99425.59;6275048;28;20056;-72
2022/07/31 05:23:44;;;;;;;13.18;9.25;;;;;;;18.91;100.00;99419.66;6253932;28;20036;-73
2022/07/31 05:26:45;;;;;;;12.07;9.88;;;;;;;18.97;100.00;99425.31;6295280;28;20483;-76
2022/07/31 05:29:46;;;;;;;10.50;8.60;;;;;;;19.02;100.00;99417.69;6264302;28;20040;-76
2022/07/31 05:32:49;;;;;;;11.57;8.88;;;;;;;19.06;100.00;99422.47;6247564;28;20114;-72
2022/07/31 05:35:50;;;;;;;10.60;8.70;;;;;;;19.28;100.00;99430.78;6281011;28;20053;-76
2022/07/31 05:38:52;;;;;;;9.07;7.85;;;;;;;19.30;100.00;99424.31;6298162;28;20574;-75
2022/07/31 05:41:53;;;;;;;9.38;8.27;;;;;;;19.28;100.00;99423.66;6289238;28;20051;-75
2022/07/31 05:44:54;;;;;;;9.07;8.07;;;;;;;19.43;100.00;99426.47;6253955;28;20444;-76
2022/07/31 05:47:54;;;;;;;9.03;8.00;;;;;;;19.60;100.00;99422.00;6297027;28;20100;-72
2022/07/31 05:50:55;;;;;;;8.00;6.95;;;;;;;19.47;100.00;99424.31;6296960;28;20526;-71
2022/07/31 05:53:56;;;;;;;8.20;6.68;;;;;;;19.41;100.00;99430.28;6296726;28;20463;-76
2022/07/31 05:56:57;;;;;;;11.48;7.00;;;;;;;19.63;100.00;99424.31;6280297;28;20173;-75
2022/07/31 06:00:00;;;;;;;8.55;6.53;;;;;;;19.60;100.00;99424.66;6297893;28;20037;-75
2022/07/31 06:03:03;;;;;;;7.03;5.95;;;;;;;19.70;100.00;99429.75;6264863;28;20079;-76
2022/07/31 06:06:04;;;;;;;9.13;6.63;;;;;;;19.81;100.00;99425.94;6263447;28;20479;-76
2022/07/31 06:09:08;;;;;;;7.50;6.40;;;;;;;19.72;100.00;99433.09;6263441;28;20455;-75
2022/07/31 06:12:08;;;;;;;9.60;6.38;;;;;;;19.88;100.00;99430.41;6297428;28;20036;-76
2022/07/31 06:15:09;;;;;;;6.63;6.00;;;;;;;19.99;100.00;99439.00;6262935;28;20071;-71
2022/07/31 06:18:13;;;;;;;7.20;6.13;;;;;;;20.26;100.00;99433.31;6246465;28;20059;-72
2022/07/31 06:21:14;;;;;;;7.32;5.72;;;;;;;20.39;100.00;99435.41;6295809;28;20052;-72
2022/07/31 06:24:15;;;;;;;7.03;5.27;;;;;;;20.27;100.00;99434.94;6293839;28;20045;-75
2022/07/31 06:27:16;;;;;;;7.97;5.70;;;;;;;20.30;100.00;99449.66;6278376;28;20044;-74
2022/07/31 06:30:17;;;;;;;8.30;5.78;;;;;;;20.32;100.00;99450.31;6262712;28;20052;-70
2022/07/31 06:33:18;;;;;;;10.32;6.00;;;;;;;20.13;100.00;99449.72;6246013;28;20375;-70
2022/07/31 06:36:19;;;;;;;5.78;5.18;;;;;;;20.04;100.00;99442.78;6296643;28;20090;-70
2022/07/31 06:39:21;;;;;;;6.95;5.80;;;;;;;19.89;100.00;99445.31;6296741;28;20124;-69
2022/07/31 06:42:24;;;;;;;5.13;4.63;;;;;;;19.77;100.00;99443.16;6278959;28;20051;-74
2022/07/31 06:45:24;;;;;;;7.18;5.22;;;;;;;19.81;100.00;99449.78;6295075;28;20391;-74
2022/07/31 06:48:25;;;;;;;5.40;4.90;;;;;;;19.70;100.00;99443.84;6245609;28;20047;-73
2022/07/31 06:51:26;;;;;;;7.03;5.47;;;;;;;19.65;100.00;99451.44;6278753;28;20089;-68
2022/07/31 06:54:28;;;;;;;7.88;4.32;;;;;;;19.65;100.00;99450.63;6278325;28;20036;-70
2022/07/31 06:57:29;;;;;;;4.88;3.65;;;;;;;19.61;100.00;99444.81;6294690;28;20048;-69
2022/07/31 07:00:30;;;;;;;6.90;3.73;;;;;;;19.68;100.00;99444.97;6249480;28;20051;-70
2022/07/31 07:03:31;;;;;;;4.67;3.20;;;;;;;19.61;100.00;99450.13;6269471;28;20043;-70
2022/07/31 07:06:31;;;;;;;4.90;3.60;;;;;;;19.74;100.00;99444.34;6267300;28;20049;-68
2022/07/31 07:09:32;;;;;;;3.70;3.40;;;;;;;19.89;100.00;99445.31;6294577;28;20045;-70
2022/07/31 07:12:36;;;;;;;4.45;3.58;;;;;;;19.87;100.00;99444.66;6242491;28;20059;-69
2022/07/31 07:15:37;;;;;;;3.08;2.78;;;;;;;19.58;100.00;99442.53;6283438;28;20504;-74
2022/07/31 07:18:41;;;;;;;3.28;2.47;;;;;;;19.49;100.00;99432.91;6258448;28;20064;-68
2022/07/31 07:21:42;;;;;;;3.97;2.90;;;;;;;19.51;100.00;99438.88;6300680;28;20036;-74
2022/07/31 07:24:43;;;;;;;4.20;2.40;;;;;;;19.57;100.00;99450.63;6257809;28;20141;-69
2022/07/31 07:27:44;;;;;;;3.30;3.00;;;;;;;19.75;100.00;99445.16;6242128;28;20049;-71
2022/07/31 07:30:45;;;;;;;3.63;3.00;;;;;;;19.89;100.00;99440.03;6258242;28;20037;-70
2022/07/31 07:33:47;;;;;;;5.87;2.70;;;;;;;20.22;100.00;99450.53;6258289;28;20506;-69
2022/07/31 07:36:48;;;;;;;5.10;3.05;;;;;;;20.09;100.00;99445.75;6265934;28;20068;-69
2022/07/31 07:39:52;;;;;;;9.40;2.85;;;;;;;20.02;100.00;99442.13;6241610;28;20139;-70
2022/07/31 07:42:53;;;;;;;4.93;2.88;;;;;;;20.28;100.00;99441.91;6296633;28;20060;-75
2022/07/31 07:45:57;;;;;;;2.40;2.20;;;;;;;20.34;100.00;99443.03;6299141;28;20082;-74
2022/07/31 07:48:58;;;;;;;2.92;2.50;;;;;;;20.41;100.00;99433.41;6282680;28;20524;-73
2022/07/31 07:52:02;;;;;;;2.47;2.28;;;;;;;20.64;100.00;99430.84;6299308;28;20398;-75
2022/07/31 07:55:05;;;;;;;3.58;2.40;;;;;;;20.67;100.00;99430.50;6285330;28;20056;-73
2022/07/31 07:58:05;;;;;;;4.28;2.30;;;;;;;20.91;100.00;99436.66;6285937;28;20040;-73
2022/07/31 08:01:06;;;;;;;2.83;2.57;;;;;;;21.08;99.25;99432.06;6266647;28;20045;-74
2022/07/31 08:04:08;;;;;;;2.50;2.30;;;;;;;21.23;100.00;99440.91;6288187;28;20056;-71
2022/07/31 08:07:09;;;;;;;2.58;2.28;;;;;;;21.58;97.44;99430.69;6282254;28;20421;-73
2022/07/31 08:10:11;;;;;;;2.13;2.00;;;;;;;21.75;93.82;99434.03;6298373;28;20044;-73
2022/07/31 08:13:12;;;;;;;4.03;2.15;;;;;;;21.88;91.71;99439.50;6300366;28;20079;-73
2022/07/31 08:16:12;;;;;;;3.03;2.00;;;;;;;22.06;90.44;99427.72;6282008;28;20044;-69
2022/07/31 08:19:13;;;;;;;3.10;2.20;;;;;;;22.21;89.34;99433.03;6299996;28;20065;-69
2022/07/31 08:22:14;;;;;;;4.13;2.17;;;;;;;22.08;89.26;99423.88;6299634;28;20052;-68
2022/07/31 08:25:15;;;;;;;2.00;1.87;;;;;;;21.82;91.65;99423.50;6298613;28;20068;-75
2022/07/31 08:28:18;;;;;;;2.13;1.93;;;;;;;21.59;95.07;99420.91;6265408;28;20048;-73
2022/07/31 08:31:19;;;;;;;2.13;1.70;;;;;;;21.43;95.30;99424.53;6249015;28;20055;-73
2022/07/31 08:34:19;;;;;;;3.07;2.20;;;;;;;21.23;98.80;99427.66;6232369;28;20060;-74
2022/07/31 08:37:20;;;;;;;2.20;2.03;;;;;;;20.98;98.17;99428.81;6299751;28;20049;-73
2022/07/31 08:40:24;;;;;;;2.73;1.70;;;;;;;20.89;98.57;99436.00;6282106;28;20047;-74
2022/07/31 08:43:25;;;;;;;2.08;1.80;;;;;;;20.86;99.34;99431.06;6300421;28;20045;-74
2022/07/31 08:46:26;;;;;;;2.20;2.00;;;;;;;20.71;98.34;99426.50;6299319;28;20082;-74
2022/07/31 08:49:29;;;;;;;2.03;1.80;;;;;;;20.74;99.98;99438.56;6265115;28;20102;-75
2022/07/31 08:52:36;;;;;;;2.00;1.80;;;;;;;20.64;100.00;99433.47;6299271;28;20045;-74
2022/07/31 08:55:37;;;;;;;5.68;1.98;;;;;;;20.49;100.00;99433.38;6280913;28;20388;-74
2022/07/31 08:58:38;;;;;;;2.90;1.75;;;;;;;20.34;100.00;99445.66;6299362;28;20052;-74
2022/07/31 09:01:39;;;;;;;2.20;1.80;;;;;;;20.12;100.00;99445.41;6248285;28;20434;-74
2022/07/31 09:04:40;;;;;;;3.30;1.73;;;;;;;20.10;100.00;99443.94;6247992;28;20059;-74
2022/07/31 09:07:41;;;;;;;4.85;1.80;;;;;;;20.06;100.00;99445.28;6281107;28;20059;-74
2022/07/31 09:10:42;;;;;;;3.45;2.10;;;;;;;20.16;100.00;99448.56;6298526;28;20048;-74
2022/07/31 09:13:52;;;;;;;4.07;2.17;;;;;;;20.11;100.00;99448.22;6280460;28;20043;-74
2022/07/31 09:16:54;;;;;;;3.42;1.70;;;;;;;20.18;100.00;99451.03;6298683;28;20123;-74
2022/07/31 09:19:55;;;;;;;2.72;1.70;;;;;;;20.32;100.00;99448.50;6298077;28;20057;-73
2022/07/31 09:23:07;;;;;;;3.30;1.60;;;;;;;20.36;99.23;99456.09;6264578;28;20051;-68
2022/07/31 09:26:08;;;;;;;1.73;1.40;;;;;;;20.67;98.04;99437.59;6264178;28;20042;-73
2022/07/31 09:29:11;;;;;;;1.43;1.23;;;;;;;20.75;94.25;99448.16;6264379;28;20048;-73
2022/07/31 09:32:17;;;;;;;1.30;1.20;;;;;;;20.81;92.87;99454.59;6264249;28;20744;-69
2022/07/31 09:35:18;;;;;;;2.10;1.10;;;;;;;21.09;91.97;99450.44;6288008;28;20052;-69
2022/07/31 09:38:19;;;;;;;1.23;1.13;;;;;;;21.19;92.04;99447.56;6282300;28;20044;-69
2022/07/31 09:41:21;;;;;;;2.27;1.47;;;;;;;21.13;90.89;99454.41;6294038;28;20640;-74
2022/07/31 09:44:22;;;;;;;1.30;1.20;;;;;;;21.05;89.68;99445.69;6298136;28;20064;-73
2022/07/31 09:47:29;;;;;;;2.10;1.37;;;;;;;20.84;93.70;99447.13;6285344;28;20390;-74
2022/07/31 09:50:29;;;;;;;3.97;1.42;;;;;;;20.72;95.14;99454.66;6255358;28;20071;-74
2022/07/31 09:53:56;;;;;;;1.50;1.30;;;;;;;20.51;98.74;99455.22;6255112;28;20076;-74
2022/07/31 09:56:57;;;;;;;1.35;0.85;;;;;;;20.07;100.00;99460.97;6238375;28;20051;-72
2022/07/31 09:59:59;;;;;;;1.10;1.00;;;;;;;19.98;100.00;99456.72;6239054;28;20374;-69
2022/07/31 10:03:01;;;;;;;2.67;1.20;;;;;;;19.86;100.00;99463.34;6238936;28;20044;-69
2022/07/31 10:06:05;;;;;;;1.83;1.52;;;;;;;19.72;100.00;99459.56;6255057;28;20041;-68
2022/07/31 10:09:06;;;;;;;1.27;1.10;;;;;;;19.72;100.00;99460.38;6271644;28;20064;-67
2022/07/31 10:12:12;;;;;;;2.45;0.88;;;;;;;19.60;100.00;99461.72;6238391;28;20463;-68
2022/07/31 10:15:18;;;;;;;0.77;0.77;;;;;;;19.68;100.00;99464.34;6254920;28;20067;-69
2022/07/31 10:18:21;;;;;;;0.85;0.80;;;;;;;19.43;100.00;99470.63;6269246;28;20043;-69
2022/07/31 10:21:26;;;;;;;3.03;1.10;;;;;;;19.33;100.00;99468.13;6297467;28;20048;-69
2022/07/31 10:24:32;;;;;;;2.97;0.90;;;;;;;19.07;100.00;99463.81;6291216;28;20135;-69
2022/07/31 10:27:39;;;;;;;1.40;1.30;;;;;;;19.17;100.00;99460.19;6297238;28;20041;-69
2022/07/31 10:30:40;;;;;;;1.45;1.00;;;;;;;19.16;100.00;99459.34;6296228;28;20169;-74
2022/07/31 10:33:44;;;;;;;4.20;1.23;;;;;;;19.25;100.00;99470.75;6262695;28;20139;-74
2022/07/31 10:36:52;;;;;;;1.15;1.00;;;;;;;19.16;100.00;99463.81;6279454;28;20045;-74
2022/07/31 10:40:06;;;;;;;2.45;1.40;;;;;;;19.36;100.00;99473.09;6297061;28;20074;-74
2022/07/31 10:43:28;;;;;;;2.13;1.30;;;;;;;19.32;100.00;99464.66;6279704;28;20483;-69
2022/07/31 10:46:31;;;;;;;1.48;1.38;;;;;;;19.37;100.00;99461.50;6279078;28;20059;-69
2022/07/31 10:49:44;;;;;;;2.30;1.40;;;;;;;19.39;100.00;99464.81;6278638;28;20510;-70
2022/07/31 10:52:44;;;;;;;2.00;1.80;;;;;;;19.50;100.00;99466.34;6296885;28;20048;-68
2022/07/31 10:55:45;;;;;;;1.93;1.50;;;;;;;19.57;100.00;99463.84;6295581;28;20079;-69
2022/07/31 10:58:52;;;;;;;1.77;1.58;;;;;;;19.71;100.00;99463.22;6296743;28;20144;-74
2022/07/31 11:01:53;;;;;;;1.60;1.40;;;;;;;19.75;100.00;99464.53;6271666;28;20440;-74
2022/07/31 11:05:16;;;;;;;2.03;1.85;;;;;;;19.80;100.00;99469.31;6277994;28;20048;-74
2022/07/31 11:08:17;;;;;;;1.65;1.55;;;;;;;19.67;100.00;99473.25;6261378;28;20056;-74
2022/07/31 11:11:34;;;;;;;2.80;1.50;;;;;;;19.45;100.00;99474.75;6277565;28;20032;-69
2022/07/31 11:14:38;;;;;;;3.35;2.20;;;;;;;19.39;100.00;99470.13;6279936;28;20079;-69
2022/07/31 11:17:39;;;;;;;2.17;1.52;;;;;;;19.28;100.00;99473.09;6277817;28;20094;-69
2022/07/31 11:20:45;;;;;;;2.50;1.70;;;;;;;19.41;100.00;99473.41;6294449;28;20415;-70
2022/07/31 11:23:46;;;;;;;1.83;1.10;;;;;;;19.69;100.00;99471.28;6269216;28;20084;-70
2022/07/31 11:26:52;;;;;;;1.23;1.00;;;;;;;19.88;100.00;99477.25;6244677;28;20052;-70
2022/07/31 11:29:53;;;;;;;0.75;0.30;;;;;;;20.13;100.00;99473.53;6295668;28;20194;-69
2022/07/31 11:32:56;;;;;;;0.20;0.20;;;;;;;20.54;100.00;99470.75;6295708;28;20086;-74
2022/07/31 11:36:05;;;;;;;0.10;0.10;;;;;;;20.91;100.00;99456.03;6276253;28;20052;-74
2022/07/31 11:39:11;;;;;;;3.10;0.30;;;;;;;21.03;96.89;99460.94;6277218;28;20074;-75
2022/07/31 11:42:12;;;;;;;1.38;0.30;;;;;;;21.44;93.95;99460.69;6277744;28;20132;-70
2022/07/31 11:45:16;;;;;;;1.13;0.40;;;;;;;21.46;96.54;99454.19;6277818;28;20037;-74
2022/07/31 11:48:19;;;;;;;0.30;0.30;;;;;;;21.46;98.51;99459.50;6277380;28;20044;-69
2022/07/31 11:51:20;;;;;;;0.40;0.40;;;;;;;21.32;98.90;99453.09;6277504;28;20445;-69
2022/07/31 11:54:25;;;;;;;0.40;0.40;;;;;;;21.72;95.77;99452.94;6295517;28;20049;-70
2022/07/31 11:57:31;;;;;;;0.40;0.40;;;;;;;22.07;95.70;99455.91;6295352;28;20041;-70
2022/07/31 12:00:32;;;;;;;0.30;0.30;;;;;;;22.00;93.76;99457.66;6278781;28;20409;-69
2022/07/31 12:03:35;;;;;;;0.60;0.50;;;;;;;22.12;95.31;99457.03;6281815;28;20056;-69
2022/07/31 12:06:40;;;;;;;0.95;0.47;;;;;;;22.44;92.64;99463.00;6299610;28;20041;-70
2022/07/31 12:09:41;;;;;;;0.52;0.40;;;;;;;22.51;91.09;99458.59;6266499;28;20051;-74
2022/07/31 12:12:42;;;;;;;0.50;0.50;;;;;;;22.23;89.69;99466.41;6265367;28;20051;-69
2022/07/31 12:16:05;;;;;;;1.03;0.70;;;;;;;21.91;96.66;99462.25;6265212;28;20147;-69
2022/07/31 12:19:09;;;;;;;2.00;1.00;;;;;;;21.79;95.68;99464.50;6274615;28;20057;-74
2022/07/31 12:22:19;;;;;;;1.50;0.90;;;;;;;21.63;99.64;99459.34;6256940;28;20573;-74
2022/07/31 12:25:19;;;;;;;1.50;1.40;;;;;;;21.28;100.00;99456.28;6256751;28;20480;-70
2022/07/31 12:28:21;;;;;;;0.90;0.90;;;;;;;21.05;100.00;99459.75;6256792;28;20047;-69
2022/07/31 12:31:22;;;;;;;0.87;0.87;;;;;;;20.91;100.00;99455.22;6256594;28;20127;-70
2022/07/31 12:34:27;;;;;;;1.80;0.80;;;;;;;20.92;100.00;99459.53;6239933;28;20351;-69
2022/07/31 12:37:28;;;;;;;1.10;1.00;;;;;;;20.72;100.00;99454.66;6256297;28;20045;-70
2022/07/31 12:40:33;;;;;;;3.38;1.00;;;;;;;20.72;100.00;99456.47;6256208;28;20049;-73
2022/07/31 12:43:34;;;;;;;0.80;0.80;;;;;;;20.83;100.00;99455.25;6256592;28;20041;-74
2022/07/31 12:46:35;;;;;;;2.93;1.00;;;;;;;21.04;100.00;99441.38;6239255;28;20561;-74
2022/07/31 12:49:36;;;;;;;3.80;0.82;;;;;;;21.28;100.00;99441.19;6256168;28;20037;-73
2022/07/31 12:52:37;;;;;;;1.00;0.90;;;;;;;21.71;93.69;99435.38;6256165;28;20420;-73
2022/07/31 12:55:38;;;;;;;0.93;0.90;;;;;;;21.87;93.02;99427.25;6261844;28;20040;-73
2022/07/31 12:58:39;;;;;;;1.33;1.23;;;;;;;21.98;93.79;99430.47;6280127;28;20064;-69
2022/07/31 13:01:40;;;;;;;8.63;1.50;;;;;;;22.04;91.73;99438.53;6263745;28;20059;-70
2022/07/31 13:04:42;;;;;;;4.78;1.23;;;;;;;22.02;93.11;99437.88;6313912;28;20048;-75
2022/07/31 13:07:45;;;;;;;1.63;1.52;;;;;;;21.93;96.00;99437.16;6290800;28;20045;-70
2022/07/31 13:10:47;;;;;;;1.63;1.50;;;;;;;21.73;97.20;99430.72;6279799;28;20074;-69
2022/07/31 13:13:47;;;;;;;2.22;1.65;;;;;;;21.60;97.81;99420.72;6263929;28;20036;-75
2022/07/31 13:16:49;;;;;;;1.50;1.40;;;;;;;21.96;96.78;99422.69;6263775;28;20044;-76
2022/07/31 13:19:50;;;;;;;1.50;1.40;;;;;;;21.77;96.65;99418.72;6279745;28;20094;-70
2022/07/31 13:22:51;;;;;;;2.03;1.50;;;;;;;21.81;97.92;99421.84;6257193;28;20049;-70
2022/07/31 13:25:53;;;;;;;1.60;1.50;;;;;;;21.75;97.85;99422.59;6238629;28;20465;-70
2022/07/31 13:28:58;;;;;;;2.33;1.27;;;;;;;21.60;99.08;99425.19;6255555;28;20083;-69
2022/07/31 13:32:02;;;;;;;2.45;1.42;;;;;;;21.63;99.15;99417.69;6255612;28;20056;-69
2022/07/31 13:35:03;;;;;;;1.42;1.33;;;;;;;21.76;98.89;99411.75;6238641;28;20037;-69
2022/07/31 13:38:05;;;;;;;1.63;1.52;;;;;;;21.85;96.50;99416.00;6255081;28;20041;-75
2022/07/31 13:41:27;;;;;;;1.98;1.20;;;;;;;21.94;96.77;99416.72;6272832;28;20091;-75
2022/07/31 13:44:28;;;;;;;1.90;1.23;;;;;;;21.86;98.31;99404.34;6241049;28;20059;-74
2022/07/31 13:47:31;;;;;;;2.03;1.40;;;;;;;21.94;95.51;99417.53;6239900;28;20040;-70
2022/07/31 13:50:36;;;;;;;1.77;1.30;;;;;;;22.04;97.92;99411.16;6247379;28;20571;-74
2022/07/31 13:53:37;;;;;;;1.20;1.13;;;;;;;22.03;97.01;99410.34;6262887;28;20063;-74
2022/07/31 13:56:38;;;;;;;2.33;1.90;;;;;;;21.92;99.03;99408.94;6262951;28;20502;-69
2022/07/31 13:59:39;;;;;;;;;;;;;;;21.87;100.00;99413.16;6263084;28;20032;-70
2022/07/31 14:02:45;;;;;;;1.83;1.40;;;;;;;21.67;100.00;99413.69;6246157;28;20405;-74
2022/07/31 14:05:46;;;;;;;1.67;1.50;;;;;;;21.63;100.00;99411.56;6262417;28;20053;-69
2022/07/31 14:08:47;;;;;;;1.88;1.45;;;;;;;21.56;100.00;99410.63;6244201;28;20045;-69